Time;durP1;ratioP1;P1;durP2;ratioP2;P2;SDS_P1;SDS_P2;PMS_P1;PMS_P2;Temp;Humidity;BMP_temperature;BMP_pressure;BME280_temperature;BME280_humidity;BME280_pressure;Samples;Min_cycle;Max_cycle;Signal;HPM_P1;HPM_P2
2022/02/23 00:00:20;;;;;;;1.27;0.70;;;21.80;33.50;;;;;;5114890;28;20757;-71
2022/02/23 00:02:47;;;;;;;1.63;0.80;;;21.80;33.50;;;;;;5113926;28;20512;-71
2022/02/23 00:05:12;;;;;;;1.05;0.60;;;21.80;33.40;;;;;;5115148;28;20839;-72
2022/02/23 00:07:38;;;;;;;1.00;0.60;;;21.80;33.40;;;;;;5115086;28;20418;-71
2022/02/23 00:10:04;;;;;;;1.20;0.70;;;21.80;33.30;;;;;;5114558;28;20745;-71
2022/02/23 00:12:31;;;;;;;1.55;0.70;;;21.80;33.30;;;;;;5113110;28;20396;-71
2022/02/23 00:14:57;;;;;;;1.38;0.70;;;21.80;33.30;;;;;;5114759;28;20463;-72
2022/02/23 00:17:25;;;;;;;0.98;0.60;;;21.80;33.30;;;;;;5113397;28;20414;-72
2022/02/23 00:19:52;;;;;;;1.00;0.57;;;21.70;33.30;;;;;;5113600;28;20384;-71
2022/02/23 00:22:18;;;;;;;1.40;0.77;;;21.80;33.30;;;;;;5112760;28;20392;-71
2022/02/23 00:24:44;;;;;;;1.27;0.70;;;21.80;33.40;;;;;;5113527;28;20753;-71
2022/02/23 00:27:09;;;;;;;0.90;0.60;;;21.70;33.30;;;;;;5113088;28;20403;-71
2022/02/23 00:29:38;;;;;;;0.90;0.60;;;21.80;33.40;;;;;;5114577;28;20387;-71
2022/02/23 00:32:04;;;;;;;1.23;0.50;;;21.70;33.40;;;;;;5114097;28;20453;-71
2022/02/23 00:34:30;;;;;;;1.30;0.60;;;21.70;33.30;;;;;;5114379;28;20889;-71
2022/02/23 00:36:56;;;;;;;1.05;0.60;;;21.70;33.30;;;;;;5113459;28;20487;-71
2022/02/23 00:39:25;;;;;;;1.10;0.60;;;21.70;33.40;;;;;;5114382;28;20392;-72
2022/02/23 00:41:52;;;;;;;1.15;0.50;;;21.70;33.40;;;;;;5113082;28;20877;-72
2022/02/23 00:44:17;;;;;;;0.73;0.50;;;21.60;33.30;;;;;;5112461;28;20388;-71
2022/02/23 00:46:44;;;;;;;1.23;0.50;;;21.70;33.40;;;;;;5114145;28;20445;-71
2022/02/23 00:49:10;;;;;;;1.10;0.60;;;21.70;33.30;;;;;;5114301;28;20440;-71
2022/02/23 00:51:36;;;;;;;0.90;0.50;;;21.60;33.20;;;;;;5114302;28;20860;-71
2022/02/23 00:54:02;;;;;;;1.05;0.63;;;21.70;33.20;;;;;;5113440;28;20400;-71
2022/02/23 00:56:28;;;;;;;1.57;0.60;;;21.70;33.20;;;;;;5112756;28;20415;-72
2022/02/23 00:58:54;;;;;;;1.20;0.70;;;21.70;33.20;;;;;;5114057;28;20440;-71
2022/02/23 01:01:20;;;;;;;1.10;0.60;;;21.70;33.30;;;;;;5112663;28;20479;-71
2022/02/23 01:03:46;;;;;;;0.82;0.50;;;21.60;33.30;;;;;;5114036;28;20382;-71
2022/02/23 01:06:12;;;;;;;0.90;0.55;;;21.60;33.20;;;;;;5112129;28;20893;-71
2022/02/23 01:08:38;;;;;;;1.10;0.60;;;21.70;33.20;;;;;;5113904;28;20369;-72
2022/02/23 01:11:04;;;;;;;0.73;0.40;;;21.60;33.10;;;;;;5113554;28;20785;-72
2022/02/23 01:13:29;;;;;;;1.25;0.50;;;21.70;33.20;;;;;;5112240;28;20438;-71
2022/02/23 01:15:55;;;;;;;0.97;0.50;;;21.60;33.20;;;;;;5112366;28;20487;-71
2022/02/23 01:18:21;;;;;;;1.02;0.50;;;21.60;33.10;;;;;;5111954;28;20408;-72
2022/02/23 01:20:47;;;;;;;0.90;0.60;;;21.60;33.10;;;;;;5113577;28;20896;-71
2022/02/23 01:23:14;;;;;;;0.82;0.50;;;21.60;33.20;;;;;;5113546;28;20480;-71
2022/02/23 01:25:40;;;;;;;0.90;0.60;;;21.50;33.10;;;;;;5113286;28;20415;-71
2022/02/23 01:28:07;;;;;;;1.17;0.52;;;21.50;33.80;;;;;;5112492;28;20412;-71
2022/02/23 01:30:33;;;;;;;0.90;0.50;;;21.50;33.20;;;;;;5112170;28;20446;-71
2022/02/23 01:32:59;;;;;;;1.00;0.50;;;21.50;33.10;;;;;;5112083;28;20449;-71
2022/02/23 01:35:26;;;;;;;1.13;0.40;;;21.50;33.20;;;;;;5113318;28;20854;-71
2022/02/23 01:37:53;;;;;;;0.60;0.40;;;21.50;33.10;;;;;;5111836;28;20427;-71
2022/02/23 01:40:20;;;;;;;0.90;0.40;;;21.50;33.20;;;;;;5112496;28;20416;-71
2022/02/23 01:42:45;;;;;;;0.70;0.40;;;21.50;33.10;;;;;;5113209;28;20380;-71
2022/02/23 01:45:11;;;;;;;0.90;0.50;;;21.50;33.10;;;;;;5112761;28;20421;-71
2022/02/23 01:47:38;;;;;;;1.23;0.50;;;21.50;33.00;;;;;;5113005;28;20900;-71
2022/02/23 01:50:06;;;;;;;0.85;0.40;;;21.60;33.10;;;;;;5112473;28;20432;-71
2022/02/23 01:52:31;;;;;;;0.80;0.50;;;21.50;33.00;;;;;;5112871;28;20865;-71
2022/02/23 01:54:57;;;;;;;1.93;0.50;;;21.50;33.00;;;;;;5113032;28;20387;-71
2022/02/23 01:57:23;;;;;;;0.70;0.50;;;21.50;33.10;;;;;;5112884;28;20455;-71
2022/02/23 01:59:50;;;;;;;0.77;0.40;;;21.50;33.10;;;;;;5112736;28;20864;-71
2022/02/23 02:02:16;;;;;;;0.60;0.40;;;21.50;33.10;;;;;;5110979;28;20396;-72
2022/02/23 02:04:42;;;;;;;0.80;0.50;;;21.50;33.00;;;;;;5111544;28;20464;-72
2022/02/23 02:07:08;;;;;;;0.90;0.50;;;21.50;33.00;;;;;;5112666;28;20471;-71
2022/02/23 02:09:34;;;;;;;1.10;0.43;;;21.50;33.00;;;;;;5111169;28;20750;-71
2022/02/23 02:11:59;;;;;;;0.85;0.40;;;21.50;33.10;;;;;;5112288;28;20395;-72
2022/02/23 02:14:25;;;;;;;0.60;0.40;;;21.50;33.20;;;;;;5112191;28;20411;-71
2022/02/23 02:16:52;;;;;;;0.60;0.40;;;21.50;33.20;;;;;;5112430;28;20512;-71
2022/02/23 02:19:18;;;;;;;0.52;0.30;;;21.50;33.10;;;;;;5112437;28;20380;-72
2022/02/23 02:21:59;;;;;;;0.55;0.40;;;21.50;33.20;;;;;;5112485;27;20445;-72
2022/02/23 02:24:27;;;;;;;0.60;0.35;;;21.40;33.10;;;;;;5112194;28;20896;-71
2022/02/23 02:26:54;;;;;;;1.13;0.40;;;21.40;33.10;;;;;;5111021;28;20431;-72
2022/02/23 02:29:20;;;;;;;0.90;0.40;;;21.40;33.00;;;;;;5112353;28;20384;-72
2022/02/23 02:31:46;;;;;;;1.35;0.40;;;21.40;33.10;;;;;;5110810;28;20453;-71
2022/02/23 02:34:12;;;;;;;0.60;0.30;;;21.40;33.00;;;;;;5111957;28;20463;-72
2022/02/23 02:36:38;;;;;;;1.13;0.40;;;21.50;33.10;;;;;;5110972;28;20494;-71
2022/02/23 02:39:06;;;;;;;1.00;0.40;;;21.50;33.00;;;;;;5110903;28;20905;-71
2022/02/23 02:41:33;;;;;;;0.68;0.40;;;21.50;33.20;;;;;;5110616;28;20420;-71
2022/02/23 02:43:59;;;;;;;0.73;0.40;;;21.50;33.00;;;;;;5110256;28;20396;-72
2022/02/23 02:46:24;;;;;;;1.10;0.40;;;21.50;33.00;;;;;;5110048;28;20409;-72
2022/02/23 02:48:50;;;;;;;0.50;0.30;;;21.50;33.00;;;;;;5111760;28;20908;-72
2022/02/23 02:51:16;;;;;;;1.20;0.40;;;21.50;33.00;;;;;;5112025;28;20384;-72
2022/02/23 02:53:42;;;;;;;0.50;0.30;;;21.50;33.00;;;;;;5111964;28;20896;-72
2022/02/23 02:56:07;;;;;;;0.70;0.38;;;21.50;33.00;;;;;;5111222;28;20768;-71
2022/02/23 02:58:33;;;;;;;0.60;0.30;;;21.50;33.00;;;;;;5112021;28;20392;-71
2022/02/23 03:00:59;;;;;;;0.80;0.35;;;21.40;33.00;;;;;;5111410;28;20380;-71
2022/02/23 03:03:24;;;;;;;0.80;0.40;;;21.40;33.70;;;;;;5110645;28;21050;-71
2022/02/23 03:05:51;;;;;;;0.77;0.40;;;21.40;33.10;;;;;;5111753;28;20884;-72
2022/02/23 03:08:16;;;;;;;0.40;0.30;;;21.40;33.80;;;;;;5109959;28;20396;-71
2022/02/23 03:10:43;;;;;;;0.63;0.35;;;21.40;33.10;;;;;;5109710;28;20446;-71
2022/02/23 03:13:10;;;;;;;0.43;0.30;;;21.40;33.00;;;;;;5111704;28;20742;-72
2022/02/23 03:15:36;;;;;;;0.82;0.40;;;21.40;33.00;;;;;;5111713;28;20423;-71
2022/02/23 03:18:03;;;;;;;0.60;0.45;;;21.40;33.00;;;;;;5111112;28;20435;-71
2022/02/23 03:20:29;;;;;;;0.90;0.40;;;21.40;33.10;;;;;;5111421;28;20376;-72
2022/02/23 03:22:55;;;;;;;0.65;0.30;;;21.40;33.10;;;;;;5110447;28;20403;-71
2022/02/23 03:25:21;;;;;;;0.75;0.35;;;21.40;33.20;;;;;;5111560;28;20380;-72
2022/02/23 03:27:46;;;;;;;0.50;0.30;;;21.40;33.10;;;;;;5110494;28;20388;-72
2022/02/23 03:30:13;;;;;;;0.43;0.30;;;21.30;33.10;;;;;;5109663;28;20388;-71
2022/02/23 03:32:39;;;;;;;0.57;0.30;;;21.40;33.10;;;;;;5110194;28;20396;-72
2022/02/23 03:35:05;;;;;;;0.50;0.30;;;21.40;33.10;;;;;;5111448;28;20385;-72
2022/02/23 03:37:32;;;;;;;0.57;0.30;;;21.40;33.00;;;;;;5111332;28;20451;-71
2022/02/23 03:39:57;;;;;;;0.40;0.30;;;21.40;33.00;;;;;;5111559;28;20896;-72
2022/02/23 03:42:23;;;;;;;0.57;0.30;;;21.40;33.00;;;;;;5110994;28;20396;-72
2022/02/23 03:44:50;;;;;;;0.50;0.32;;;21.40;33.70;;;;;;5111303;28;20977;-71
2022/02/23 03:47:15;;;;;;;0.90;0.25;;;21.40;33.10;;;;;;5111464;28;20765;-72
2022/02/23 03:49:41;;;;;;;0.93;0.40;;;21.40;33.10;;;;;;5110132;28;20441;-72
2022/02/23 03:52:07;;;;;;;0.63;0.40;;;21.40;33.00;;;;;;5111180;28;20393;-72
2022/02/23 03:54:33;;;;;;;0.30;0.30;;;21.40;33.10;;;;;;5111329;28;20475;-72
2022/02/23 03:56:58;;;;;;;0.52;0.32;;;21.30;33.00;;;;;;5111325;28;20406;-73
2022/02/23 03:59:24;;;;;;;0.63;0.20;;;21.40;33.00;;;;;;5111392;28;20389;-72
2022/02/23 04:01:50;;;;;;;0.40;0.20;;;21.30;33.00;;;;;;5111317;28;20399;-72
2022/02/23 04:04:16;;;;;;;0.60;0.30;;;21.40;33.00;;;;;;5110681;28;20815;-71
2022/02/23 04:06:43;;;;;;;2.07;0.43;;;21.40;33.10;;;;;;5111426;28;20380;-72
2022/02/23 04:09:10;;;;;;;1.65;0.30;;;21.50;33.90;;;;;;5110067;28;20420;-71
2022/02/23 04:11:36;;;;;;;1.90;0.30;;;21.50;33.70;;;;;;5111236;28;20455;-71
2022/02/23 04:14:03;;;;;;;1.20;0.70;;;21.60;33.70;;;;;;5114077;28;20418;-71
2022/02/23 04:16:29;;;;;;;2.70;0.40;;;21.60;35.50;;;;;;5113108;28;20465;-72
2022/02/23 04:18:55;;;;;;;5.22;0.50;;;21.70;35.10;;;;;;5114436;28;20396;-71
2022/02/23 04:21:21;;;;;;;3.10;0.57;;;21.70;36.10;;;;;;5114673;28;20377;-72
2022/02/23 04:23:47;;;;;;;3.75;0.52;;;21.70;36.20;;;;;;5115257;28;20948;-72
2022/02/23 04:26:16;;;;;;;5.15;0.40;;;21.80;36.60;;;;;;5112804;28;20484;-72
2022/02/23 04:28:42;;;;;;;2.65;0.50;;;21.90;36.60;;;;;;5113815;28;20389;-71
2022/02/23 04:31:08;;;;;;;4.07;0.45;;;21.90;36.70;;;;;;5114205;27;20383;-73
2022/02/23 04:33:35;;;;;;;4.30;0.40;;;22.00;36.80;;;;;;5114526;28;20388;-71
2022/02/23 04:36:03;;;;;;;4.90;0.60;;;22.00;36.90;;;;;;5114243;28;20388;-72
2022/02/23 04:38:29;;;;;;;5.15;0.40;;;22.10;36.30;;;;;;5113727;28;20549;-72
2022/02/23 04:40:55;;;;;;;3.63;0.50;;;22.10;36.60;;;;;;5112493;28;20487;-72
2022/02/23 04:43:21;;;;;;;3.85;0.40;;;22.10;36.90;;;;;;5114273;28;20393;-72
2022/02/23 04:45:47;;;;;;;6.93;0.70;;;22.20;36.70;;;;;;5114516;28;20397;-73
2022/02/23 04:48:13;;;;;;;6.20;0.80;;;22.20;36.50;;;;;;5113475;28;20458;-72
2022/02/23 04:50:39;;;;;;;5.72;0.55;;;22.10;36.40;;;;;;5114151;28;20462;-72
2022/02/23 04:53:05;;;;;;;4.07;0.60;;;22.00;36.00;;;;;;5114050;28;20392;-71
2022/02/23 04:55:31;;;;;;;3.97;0.50;;;22.00;36.10;;;;;;5112850;28;20403;-71
2022/02/23 04:57:57;;;;;;;5.75;0.65;;;22.00;35.90;;;;;;5113910;28;20412;-71
2022/02/23 05:00:22;;;;;;;3.57;0.50;;;21.90;35.70;;;;;;5113430;27;20415;-71
2022/02/23 05:02:48;;;;;;;6.13;0.50;;;21.90;36.40;;;;;;5113878;28;20742;-71
2022/02/23 05:05:14;;;;;;;4.37;0.60;;;22.00;36.50;;;;;;5113777;28;20812;-72
2022/02/23 05:07:39;;;;;;;3.80;0.50;;;21.90;36.40;;;;;;5112691;28;20399;-71
2022/02/23 05:10:06;;;;;;;3.53;1.00;;;21.90;36.60;;;;;;5113728;28;20376;-71
2022/02/23 05:12:31;;;;;;;5.50;0.70;;;22.00;36.70;;;;;;5112862;28;20424;-71
2022/02/23 05:14:57;;;;;;;5.15;0.50;;;22.00;36.50;;;;;;5111910;28;20415;-71
2022/02/23 05:17:23;;;;;;;5.53;0.90;;;22.00;36.50;;;;;;5112233;28;20449;-70
2022/02/23 05:19:49;;;;;;;4.55;0.60;;;22.00;35.80;;;;;;5113707;28;20381;-71
2022/02/23 05:22:16;;;;;;;5.93;0.47;;;22.00;35.70;;;;;;5111647;28;20385;-71
2022/02/23 05:24:42;;;;;;;2.65;0.40;;;21.90;34.90;;;;;;5113219;28;20437;-71
2022/02/23 05:27:07;;;;;;;5.10;0.80;;;21.90;34.90;;;;;;5113507;28;20882;-71
2022/02/23 05:29:33;;;;;;;4.88;0.50;;;21.80;35.00;;;;;;5112794;28;20380;-70
2022/02/23 05:32:00;;;;;;;3.70;0.43;;;21.80;35.40;;;;;;5110322;28;20415;-71
2022/02/23 05:34:25;;;;;;;4.13;0.60;;;21.80;35.00;;;;;;5112680;28;20433;-71
2022/02/23 05:36:51;;;;;;;1.50;0.50;;;21.90;35.10;;;;;;5113108;28;20484;-71
2022/02/23 05:39:17;;;;;;;2.30;0.63;;;21.90;34.90;;;;;;5113017;28;20862;-71
2022/02/23 05:41:44;;;;;;;3.08;0.60;;;21.90;36.10;;;;;;5113162;28;20375;-71
2022/02/23 05:44:10;;;;;;;2.08;0.60;;;21.90;37.00;;;;;;5111549;28;20749;-71
2022/02/23 05:46:36;;;;;;;3.13;0.80;;;22.00;37.90;;;;;;5112880;28;20877;-71
2022/02/23 05:49:02;;;;;;;6.15;1.00;;;22.00;36.40;;;;;;5113003;28;20395;-72
2022/02/23 05:51:29;;;;;;;3.20;0.70;;;22.00;37.10;;;;;;5112871;28;20384;-71
2022/02/23 05:53:55;;;;;;;4.47;0.82;;;22.00;37.20;;;;;;5112768;28;20388;-72
2022/02/23 05:56:20;;;;;;;5.22;0.75;;;21.90;36.70;;;;;;5112409;28;20380;-71
2022/02/23 05:58:46;;;;;;;5.47;0.80;;;21.90;37.40;;;;;;5112657;28;20453;-70
2022/02/23 06:01:12;;;;;;;4.43;0.60;;;22.00;36.50;;;;;;5112582;28;20426;-72
2022/02/23 06:03:38;;;;;;;5.15;0.68;;;21.90;36.60;;;;;;5112731;28;20385;-71
2022/02/23 06:06:03;;;;;;;2.67;0.70;;;21.90;37.30;;;;;;5112542;28;20388;-71
2022/02/23 06:08:29;;;;;;;2.47;0.60;;;21.90;37.20;;;;;;5112067;28;20396;-71
2022/02/23 06:10:55;;;;;;;3.28;0.80;;;21.90;37.00;;;;;;5112696;28;20389;-72
2022/02/23 06:13:21;;;;;;;2.08;0.60;;;21.90;36.70;;;;;;5112520;28;20485;-72
2022/02/23 06:15:47;;;;;;;3.07;0.90;;;21.90;36.50;;;;;;5112615;28;20388;-71
2022/02/23 06:18:14;;;;;;;1.58;0.77;;;21.90;36.20;;;;;;5112152;28;20439;-71
2022/02/23 06:20:40;;;;;;;2.50;0.70;;;21.90;36.00;;;;;;5112307;28;20406;-71
2022/02/23 06:23:05;;;;;;;2.85;0.60;;;21.90;35.90;;;;;;5111131;28;20491;-71
2022/02/23 06:25:31;;;;;;;1.97;0.63;;;21.90;35.70;;;;;;5112236;28;20398;-71
2022/02/23 06:27:57;;;;;;;1.67;0.50;;;21.90;36.00;;;;;;5112216;28;20480;-71
2022/02/23 06:30:23;;;;;;;2.83;0.70;;;21.80;35.80;;;;;;5111482;28;20858;-71
2022/02/23 06:32:49;;;;;;;1.65;0.60;;;21.80;35.80;;;;;;5112324;28;20380;-71
2022/02/23 06:35:14;;;;;;;1.60;0.50;;;21.80;35.70;;;;;;5111508;28;21067;-71
2022/02/23 06:37:40;;;;;;;1.50;0.50;;;21.80;35.60;;;;;;5110900;28;20420;-71
2022/02/23 06:40:08;;;;;;;2.50;0.57;;;21.80;35.60;;;;;;5112132;28;20875;-71
2022/02/23 06:42:36;;;;;;;2.40;0.60;;;21.80;35.40;;;;;;5111597;28;20836;-71
2022/02/23 06:45:07;;;;;;;1.52;0.60;;;21.80;35.10;;;;;;5111622;28;20396;-71
2022/02/23 06:47:33;;;;;;;1.50;0.60;;;21.80;35.20;;;;;;5111642;28;20385;-71
2022/02/23 06:49:59;;;;;;;2.25;0.50;;;21.80;35.70;;;;;;5112033;28;20376;-71
2022/02/23 06:52:31;;;;;;;1.05;0.50;;;21.80;34.80;;;;;;5111672;28;20435;-71
2022/02/23 06:54:57;;;;;;;1.02;0.60;;;21.80;34.70;;;;;;5112049;28;20762;-71
2022/02/23 06:57:23;;;;;;;1.35;0.50;;;21.80;34.60;;;;;;5111996;28;20415;-71
2022/02/23 06:59:49;;;;;;;1.48;0.60;;;21.80;34.40;;;;;;5111979;28;20381;-71
2022/02/23 07:02:15;;;;;;;1.67;0.60;;;21.90;34.50;;;;;;5111668;28;20750;-71
2022/02/23 07:04:41;;;;;;;1.55;0.60;;;21.90;34.50;;;;;;5111662;28;20888;-71
2022/02/23 07:07:07;;;;;;;1.20;0.47;;;21.90;34.50;;;;;;5111801;28;20385;-71
2022/02/23 07:09:34;;;;;;;1.20;0.50;;;21.80;34.40;;;;;;5111912;28;20479;-71
2022/02/23 07:12:04;;;;;;;1.73;0.50;;;21.80;34.40;;;;;;5111875;28;20392;-71
2022/02/23 07:14:30;;;;;;;0.93;0.50;;;21.80;34.30;;;;;;5110030;28;20723;-71
2022/02/23 07:16:55;;;;;;;0.80;0.40;;;21.80;34.30;;;;;;5111419;28;20406;-71
2022/02/23 07:19:24;;;;;;;0.98;0.50;;;21.80;34.20;;;;;;5111709;28;20480;-71
2022/02/23 07:21:50;;;;;;;1.10;0.43;;;21.80;34.20;;;;;;5111748;28;20463;-71
2022/02/23 07:24:15;;;;;;;1.88;0.57;;;21.80;34.10;;;;;;5111520;28;20479;-71
2022/02/23 07:26:41;;;;;;;0.80;0.40;;;21.80;34.10;;;;;;5111542;28;20391;-71
2022/02/23 07:29:07;;;;;;;1.10;0.60;;;21.80;34.20;;;;;;5111663;28;20491;-71
2022/02/23 07:31:32;;;;;;;1.10;0.60;;;21.80;34.30;;;;;;5111605;28;20538;-71
2022/02/23 07:33:58;;;;;;;0.90;0.50;;;21.80;34.30;;;;;;5111612;28;20457;-71
2022/02/23 07:36:24;;;;;;;1.00;0.50;;;21.70;34.10;;;;;;5111223;28;20411;-71
2022/02/23 07:38:51;;;;;;;1.60;0.60;;;21.70;34.10;;;;;;5111679;28;20491;-71
2022/02/23 07:41:23;;;;;;;0.80;0.50;;;21.80;33.90;;;;;;5111591;28;20373;-71
2022/02/23 07:43:52;;;;;;;0.57;0.40;;;21.80;33.90;;;;;;5111579;28;20418;-71
2022/02/23 07:46:19;;;;;;;0.93;0.40;;;21.80;34.00;;;;;;5112398;28;20404;-71
2022/02/23 07:48:47;;;;;;;1.10;0.43;;;21.70;33.90;;;;;;5115343;28;20389;-72
2022/02/23 07:51:17;;;;;;;0.70;0.50;;;21.80;33.90;;;;;;5115398;28;20373;-71
2022/02/23 07:53:44;;;;;;;1.00;0.40;;;21.80;33.90;;;;;;5115450;28;20411;-71
2022/02/23 07:56:10;;;;;;;0.82;0.50;;;21.80;33.90;;;;;;5115225;28;20865;-72
2022/02/23 07:58:36;;;;;;;1.10;0.50;;;21.80;33.80;;;;;;5114707;28;20427;-72
2022/02/23 08:01:02;;;;;;;0.70;0.40;;;21.80;33.90;;;;;;5115103;28;20385;-71
2022/02/23 08:03:28;;;;;;;1.02;0.50;;;21.80;33.80;;;;;;5115226;27;20385;-71
2022/02/23 08:05:54;;;;;;;0.73;0.43;;;21.80;33.80;;;;;;5115188;28;20426;-72
2022/02/23 08:08:20;;;;;;;1.17;0.50;;;21.80;33.70;;;;;;5114812;28;20897;-71
2022/02/23 08:10:46;;;;;;;1.40;0.60;;;21.80;33.60;;;;;;5114872;28;20377;-72
2022/02/23 08:13:12;;;;;;;0.52;0.40;;;21.80;33.60;;;;;;5113591;28;20806;-71
2022/02/23 08:21:19;;;;;;;0.90;0.40;;;21.80;33.60;;;;;;5114327;28;20387;-71
2022/02/23 08:23:46;;;;;;;0.65;0.43;;;21.80;33.70;;;;;;5114782;28;20395;-71
2022/02/23 08:26:13;;;;;;;0.68;0.40;;;21.80;33.70;;;;;;5114602;28;20379;-71
2022/02/23 08:28:39;;;;;;;1.20;0.60;;;21.80;33.70;;;;;;5114266;28;20395;-71
2022/02/23 08:31:06;;;;;;;1.10;0.55;;;21.80;33.70;;;;;;5114645;28;20388;-71
2022/02/23 08:33:31;;;;;;;0.60;0.40;;;21.80;34.20;;;;;;5114661;28;20388;-71
2022/02/23 08:35:58;;;;;;;1.20;0.50;;;21.80;33.60;;;;;;5114590;28;20400;-72
2022/02/23 08:38:24;;;;;;;1.00;0.57;;;21.80;33.70;;;;;;5114000;28;20469;-72
2022/02/23 08:40:49;;;;;;;0.70;0.30;;;21.70;33.70;;;;;;5114385;28;20388;-71
2022/02/23 08:43:15;;;;;;;1.20;0.40;;;21.70;33.60;;;;;;5114506;28;20384;-71
2022/02/23 08:45:42;;;;;;;0.77;0.47;;;21.70;33.60;;;;;;5114323;28;20419;-71
2022/02/23 08:48:09;;;;;;;0.60;0.40;;;21.70;33.50;;;;;;5114283;28;20482;-72
2022/02/23 08:50:35;;;;;;;0.52;0.35;;;21.80;33.50;;;;;;5113669;28;20391;-71
2022/02/23 08:53:01;;;;;;;0.65;0.40;;;21.80;33.50;;;;;;5114106;28;20391;-71
2022/02/23 08:55:26;;;;;;;0.70;0.50;;;21.80;33.50;;;;;;5114408;28;20388;-71
2022/02/23 08:57:52;;;;;;;0.70;0.50;;;21.80;33.50;;;;;;5113224;28;20907;-71
2022/02/23 09:00:18;;;;;;;0.70;0.50;;;21.80;33.40;;;;;;5114115;28;20381;-71
2022/02/23 09:02:44;;;;;;;1.00;0.60;;;21.80;33.40;;;;;;5113800;28;20463;-71
2022/02/23 09:05:09;;;;;;;0.77;0.40;;;21.90;33.40;;;;;;5112619;28;20384;-71
2022/02/23 09:07:35;;;;;;;0.70;0.40;;;21.80;33.20;;;;;;5114011;28;20857;-71
2022/02/23 09:10:01;;;;;;;1.13;0.60;;;21.80;33.20;;;;;;5113838;28;20383;-71
2022/02/23 09:12:27;;;;;;;0.60;0.40;;;21.80;33.20;;;;;;5113573;28;20866;-70
2022/02/23 09:14:53;;;;;;;1.10;0.50;;;21.80;33.20;;;;;;5113881;28;20725;-71
2022/02/23 09:17:20;;;;;;;0.77;0.40;;;21.90;33.20;;;;;;5113734;28;20398;-71
2022/02/23 09:19:46;;;;;;;1.20;0.50;;;21.90;33.20;;;;;;5113619;28;20393;-72
2022/02/23 09:22:12;;;;;;;0.73;0.40;;;21.90;33.10;;;;;;5113664;28;20369;-71
2022/02/23 09:24:39;;;;;;;0.90;0.50;;;21.80;33.10;;;;;;5113294;28;20395;-72
2022/02/23 09:27:04;;;;;;;0.70;0.40;;;21.90;33.20;;;;;;5113532;28;20376;-71
2022/02/23 09:29:36;;;;;;;0.73;0.40;;;21.80;33.20;;;;;;5113625;28;20448;-72
2022/02/23 09:32:03;;;;;;;0.70;0.40;;;21.80;33.20;;;;;;5113455;28;20905;-72
2022/02/23 09:34:29;;;;;;;0.70;0.40;;;21.80;33.10;;;;;;5111717;28;20408;-71
2022/02/23 09:36:55;;;;;;;0.70;0.40;;;21.90;33.20;;;;;;5113046;28;20412;-72
2022/02/23 09:39:21;;;;;;;1.00;0.50;;;21.80;33.10;;;;;;5113405;28;20921;-71
2022/02/23 09:41:47;;;;;;;0.60;0.40;;;21.90;33.10;;;;;;5113408;28;20395;-72
2022/02/23 09:44:19;;;;;;;0.82;0.40;;;21.90;33.00;;;;;;5112965;28;20376;-72
2022/02/23 09:46:45;;;;;;;0.80;0.50;;;21.90;33.10;;;;;;5112683;28;20446;-72
2022/02/23 09:49:12;;;;;;;1.20;0.43;;;21.90;33.00;;;;;;5113152;28;20414;-71
2022/02/23 09:51:38;;;;;;;1.15;0.50;;;21.90;33.00;;;;;;5113097;28;20388;-71
2022/02/23 09:54:04;;;;;;;1.23;0.50;;;21.90;32.90;;;;;;5113057;28;20539;-71
2022/02/23 09:56:32;;;;;;;0.60;0.40;;;21.90;32.90;;;;;;5112466;28;20889;-71
2022/02/23 09:58:59;;;;;;;0.75;0.43;;;22.00;32.90;;;;;;5112931;28;20418;-72
2022/02/23 10:01:26;;;;;;;1.52;0.50;;;22.00;32.80;;;;;;5112951;28;20381;-72
2022/02/23 10:03:55;;;;;;;1.45;0.50;;;22.10;32.70;;;;;;5113012;28;20392;-71
2022/02/23 10:06:28;;;;;;;1.10;0.40;;;22.10;32.70;;;;;;5112892;28;20408;-71
2022/02/23 10:09:03;;;;;;;1.10;0.50;;;22.10;32.60;;;;;;5112799;28;20388;-71
2022/02/23 10:11:30;;;;;;;0.85;0.43;;;22.10;32.60;;;;;;5112716;28;20392;-71
2022/02/23 10:13:56;;;;;;;0.80;0.40;;;22.10;32.60;;;;;;5112612;28;20430;-71
2022/02/23 10:16:30;;;;;;;0.85;0.50;;;22.20;32.60;;;;;;5112545;28;20392;-71
2022/02/23 10:19:12;;;;;;;0.70;0.40;;;22.20;32.50;;;;;;5112571;28;20405;-71
2022/02/23 10:21:50;;;;;;;0.80;0.40;;;22.20;32.50;;;;;;5112526;28;20411;-71
2022/02/23 10:24:23;;;;;;;1.03;0.40;;;22.10;32.50;;;;;;5112363;28;20376;-71
2022/02/23 10:26:56;;;;;;;1.23;0.40;;;22.10;32.50;;;;;;5112195;28;20866;-72
2022/02/23 10:29:26;;;;;;;1.48;0.60;;;22.20;32.50;;;;;;5111136;28;20441;-71
2022/02/23 10:31:52;;;;;;;1.00;0.50;;;22.10;32.40;;;;;;5112378;28;20393;-71
2022/02/23 10:34:20;;;;;;;1.27;0.60;;;22.10;32.50;;;;;;5111083;28;20433;-71
2022/02/23 10:36:59;;;;;;;1.25;0.68;;;21.70;32.30;;;;;;5110530;28;20494;-71
2022/02/23 10:39:34;;;;;;;1.10;0.40;;;22.10;32.40;;;;;;5112363;27;20377;-71
2022/02/23 10:42:08;;;;;;;0.80;0.50;;;22.20;32.40;;;;;;5112310;28;20404;-72
2022/02/23 10:44:34;;;;;;;0.70;0.30;;;22.20;32.50;;;;;;5111569;28;20471;-71
2022/02/23 10:47:01;;;;;;;1.35;0.40;;;22.20;32.40;;;;;;5112267;28;20481;-72
2022/02/23 10:49:28;;;;;;;1.08;0.50;;;22.20;32.40;;;;;;5111317;28;21682;-71
2022/02/23 10:52:06;;;;;;;1.00;0.50;;;22.20;32.40;;;;;;5112032;28;20430;-72
2022/02/23 10:54:32;;;;;;;0.80;0.40;;;22.20;32.30;;;;;;5110275;28;20780;-71
2022/02/23 10:56:58;;;;;;;0.80;0.40;;;22.20;32.40;;;;;;5111894;28;20453;-71
2022/02/23 10:59:23;;;;;;;1.07;0.50;;;22.20;32.30;;;;;;5110779;28;20392;-72
2022/02/23 11:01:51;;;;;;;0.70;0.43;;;22.20;32.30;;;;;;5111972;28;20380;-72
2022/02/23 11:04:20;;;;;;;0.80;0.50;;;22.20;32.30;;;;;;5111909;28;20407;-72
2022/02/23 11:06:48;;;;;;;0.90;0.50;;;22.20;32.30;;;;;;5111431;28;21095;-71
2022/02/23 11:09:14;;;;;;;1.30;0.50;;;22.30;32.30;;;;;;5111914;28;20432;-71
2022/02/23 11:11:40;;;;;;;0.88;0.57;;;22.30;32.30;;;;;;5111822;28;20385;-72
2022/02/23 11:14:11;;;;;;;1.58;0.60;;;22.20;32.30;;;;;;5111816;28;20381;-71
2022/02/23 11:16:38;;;;;;;1.05;0.50;;;22.30;32.30;;;;;;5111350;28;20384;-71
2022/02/23 11:19:05;;;;;;;1.13;0.50;;;22.30;32.30;;;;;;5111732;28;20445;-71
2022/02/23 11:21:35;;;;;;;0.60;0.40;;;22.30;32.20;;;;;;5112290;28;20839;-72
2022/02/23 11:24:07;;;;;;;0.80;0.50;;;22.30;32.20;;;;;;5115940;28;20392;-72
2022/02/23 11:26:37;;;;;;;1.08;0.40;;;22.30;32.10;;;;;;5115535;28;20467;-72
2022/02/23 11:29:12;;;;;;;1.08;0.60;;;22.30;32.00;;;;;;5115837;28;20403;-72
2022/02/23 11:31:39;;;;;;;0.70;0.40;;;22.80;32.30;;;;;;5114566;28;20388;-72
2022/02/23 11:34:12;;;;;;;1.00;0.50;;;22.30;32.00;;;;;;5115866;28;20388;-72
2022/02/23 11:36:42;;;;;;;1.15;0.47;;;22.40;32.00;;;;;;5115319;28;20722;-71
2022/02/23 11:39:21;;;;;;;1.08;0.40;;;22.40;31.90;;;;;;5115707;28;20388;-72
2022/02/23 11:41:54;;;;;;;0.95;0.40;;;22.40;31.90;;;;;;5115602;28;20384;-71
2022/02/23 11:44:20;;;;;;;1.00;0.43;;;22.40;31.90;;;;;;5115522;28;20399;-72
2022/02/23 11:46:51;;;;;;;1.20;0.50;;;22.40;31.90;;;;;;5115063;27;20494;-72
2022/02/23 11:49:21;;;;;;;1.17;0.43;;;22.40;31.90;;;;;;5115589;28;20387;-72
2022/02/23 11:51:47;;;;;;;1.13;0.57;;;22.40;31.80;;;;;;5115467;28;20957;-72
2022/02/23 11:54:14;;;;;;;1.20;0.60;;;22.40;31.90;;;;;;5114093;28;20442;-72
2022/02/23 11:56:50;;;;;;;1.35;0.70;;;22.40;31.90;;;;;;5113629;28;20456;-72
2022/02/23 11:59:44;;;;;;;1.10;0.55;;;22.80;32.20;;;;;;5113929;28;20431;-72
2022/02/23 12:02:11;;;;;;;1.00;0.52;;;22.30;31.90;;;;;;5115190;28;20416;-72
2022/02/23 12:04:48;;;;;;;1.45;0.70;;;22.30;31.90;;;;;;5113551;28;20430;-71
2022/02/23 12:07:15;;;;;;;1.40;0.60;;;22.30;31.90;;;;;;5114996;28;20418;-72
2022/02/23 12:09:55;;;;;;;1.23;0.63;;;22.30;31.90;;;;;;5113828;28;20770;-72
2022/02/23 12:12:51;;;;;;;1.05;0.50;;;22.30;31.90;;;;;;5113838;28;20392;-71
2022/02/23 12:15:36;;;;;;;0.80;0.52;;;22.30;31.90;;;;;;5113681;28;20376;-72
2022/02/23 12:18:01;;;;;;;1.48;0.70;;;22.30;31.90;;;;;;5113392;28;20452;-71
2022/02/23 12:20:41;;;;;;;1.13;0.50;;;22.30;31.90;;;;;;5114923;28;20412;-72
2022/02/23 12:23:14;;;;;;;0.95;0.50;;;22.30;31.90;;;;;;5113548;28;20781;-72
2022/02/23 12:25:49;;;;;;;0.77;0.50;;;22.20;31.80;;;;;;5113603;28;20390;-72
2022/02/23 12:28:20;;;;;;;1.40;0.70;;;22.30;31.80;;;;;;5113486;28;20477;-72
2022/02/23 12:30:54;;;;;;;1.30;0.60;;;22.30;31.80;;;;;;5114317;28;20941;-71
2022/02/23 12:33:20;;;;;;;1.10;0.60;;;22.30;31.80;;;;;;5113381;28;20936;-72
2022/02/23 12:35:47;;;;;;;1.23;0.50;;;22.30;31.90;;;;;;5113375;28;20388;-71
2022/02/23 12:38:16;;;;;;;1.40;0.60;;;22.40;31.90;;;;;;5113227;28;20489;-72
2022/02/23 12:40:42;;;;;;;1.10;0.40;;;22.40;31.80;;;;;;5113920;28;20388;-72
2022/02/23 12:43:11;;;;;;;1.23;0.50;;;22.40;31.80;;;;;;5114517;27;20424;-72
2022/02/23 12:46:08;;;;;;;1.20;0.60;;;22.40;31.80;;;;;;5114284;28;20404;-72
2022/02/23 12:48:36;;;;;;;0.88;0.50;;;22.30;31.90;;;;;;5108612;28;20399;-72
2022/02/23 12:51:05;;;;;;;1.90;0.57;;;22.30;31.80;;;;;;5112656;28;20392;-72
2022/02/23 12:53:31;;;;;;;1.63;0.50;;;22.40;31.80;;;;;;5114302;28;20742;-72